createdAt,value
2023-04-26T04:22:02.402Z,53.85
2023-04-26T04:24:31.862Z,54.42
2023-04-26T04:27:01.746Z,54.45
2023-04-26T04:29:29.748Z,54.39
2023-04-26T04:31:57.750Z,54.47
2023-04-26T04:34:26.636Z,54.07
2023-04-26T04:36:54.869Z,54.57
2023-04-26T04:39:24.492Z,54.89
2023-04-26T04:41:52.846Z,54.02
2023-04-26T04:44:20.938Z,54.38
2023-04-26T04:46:56.872Z,54.01
2023-04-26T04:49:25.934Z,53.96
2023-04-26T04:51:54.198Z,54.41
2023-04-26T04:54:22.246Z,53.97
2023-04-26T04:56:52.268Z,54.89
2023-04-26T04:59:20.410Z,54.37
2023-04-26T05:01:55.856Z,53.78
2023-04-26T05:04:24.012Z,53.69
2023-04-26T05:06:54.725Z,53.99
2023-04-26T05:09:22.971Z,54.57
2023-04-26T05:11:52.762Z,54.14
2023-04-26T05:14:21.201Z,53.87
2023-04-26T05:16:49.540Z,54.28
2023-04-26T05:19:17.858Z,53.99
2023-04-26T05:21:45.660Z,53.91
2023-04-26T05:27:13.760Z,53.60
2023-04-26T05:33:08.709Z,53.23
2023-04-26T05:35:54.142Z,53.58
2023-04-26T05:38:26.083Z,53.10
2023-04-26T05:44:32.431Z,52.75
2023-04-26T05:47:05.377Z,52.23
2023-04-26T05:49:35.942Z,52.01
2023-04-26T05:52:18.709Z,51.33
2023-04-26T05:55:00.746Z,50.56
2023-04-26T05:57:31.275Z,50.48
2023-04-26T06:00:36.469Z,49.98
2023-04-26T06:09:23.748Z,46.65
2023-04-26T06:11:51.658Z,45.76
2023-04-26T06:14:29.954Z,45.30
2023-04-26T06:16:59.958Z,45.03
2023-04-26T06:19:33.104Z,43.83
2023-04-26T06:22:00.974Z,42.87
2023-04-26T06:24:32.223Z,42.58
2023-04-26T06:27:00.048Z,41.26
2023-04-26T06:29:27.782Z,40.45
2023-04-26T06:31:55.763Z,39.89
2023-04-26T06:34:27.167Z,39.34
2023-04-26T06:37:47.065Z,37.85
2023-04-26T06:40:25.682Z,37.00
2023-04-26T06:42:56.886Z,36.79
2023-04-26T06:45:27.619Z,36.00
2023-04-26T06:47:57.446Z,34.59
2023-04-26T06:50:32.753Z,34.61
2023-04-26T06:53:01.663Z,34.10
2023-04-26T06:55:30.303Z,34.07
2023-04-26T06:57:59.090Z,34.01
2023-04-26T07:00:28.215Z,33.34
2023-04-26T07:02:56.519Z,33.24
2023-04-26T07:05:24.917Z,33.12
2023-04-26T07:07:54.572Z,32.93
2023-04-26T07:10:22.716Z,32.47
2023-04-26T07:12:50.673Z,31.93
2023-04-26T07:15:18.526Z,31.32
2023-04-26T07:17:47.135Z,30.57
2023-04-26T07:20:19.648Z,30.62
2023-04-26T07:22:47.624Z,30.68
2023-04-26T07:25:17.139Z,30.89
2023-04-26T07:27:45.363Z,30.21
2023-04-26T07:30:13.939Z,30.76
2023-04-26T07:32:42.223Z,29.66
2023-04-26T07:35:16.392Z,29.33
2023-04-26T07:37:45.185Z,29.17
2023-04-26T07:40:15.023Z,29.40
2023-04-26T07:42:46.732Z,29.50
2023-04-26T07:45:14.737Z,29.27
2023-04-26T07:47:42.759Z,29.58
2023-04-26T07:50:12.406Z,29.29
2023-04-26T07:52:40.387Z,29.01
2023-04-26T07:55:08.921Z,28.87
2023-04-26T07:57:37.758Z,28.59
2023-04-26T08:00:10.925Z,28.17
2023-04-26T08:02:45.589Z,27.70
2023-04-26T08:05:14.048Z,27.54
2023-04-26T08:07:42.233Z,27.73
2023-04-26T08:10:11.055Z,26.70
2023-04-26T08:12:39.201Z,26.67
2023-04-26T08:15:09.459Z,26.52
2023-04-26T08:17:37.683Z,26.47
2023-04-26T08:20:07.278Z,26.76
2023-04-26T08:22:35.128Z,26.72
2023-04-26T08:25:04.617Z,25.93
2023-04-26T08:27:34.485Z,25.70
2023-04-26T08:30:02.404Z,25.97
2023-04-26T08:32:31.691Z,25.38
2023-04-26T08:34:59.731Z,25.56
2023-04-26T08:37:29.318Z,25.49
2023-04-26T08:39:57.462Z,25.46
2023-04-26T08:42:27.370Z,24.96
2023-04-26T08:44:55.136Z,24.83
2023-04-26T08:47:31.677Z,25.27
2023-04-26T08:50:02.748Z,24.54
2023-04-26T08:52:31.656Z,24.57
2023-04-26T08:55:00.322Z,24.90
2023-04-26T08:57:28.133Z,25.56
2023-04-26T08:59:56.450Z,25.98
2023-04-26T09:02:24.549Z,26.70
2023-04-26T09:04:52.820Z,27.08
2023-04-26T09:07:22.915Z,26.74
2023-04-26T09:09:51.395Z,26.81
2023-04-26T09:12:20.231Z,25.70
2023-04-26T09:14:48.146Z,25.56
2023-04-26T09:17:28.978Z,24.48
2023-04-26T09:19:56.828Z,24.21
2023-04-26T09:22:33.209Z,23.28
2023-04-26T09:25:01.241Z,23.34
2023-04-26T09:27:36.469Z,23.36
2023-04-26T09:30:10.376Z,22.72
2023-04-26T09:32:51.613Z,22.91
2023-04-26T09:35:37.399Z,23.91
2023-04-26T09:38:12.360Z,23.72
2023-04-26T09:40:42.158Z,23.94
2023-04-26T09:43:11.519Z,24.47
2023-04-26T09:45:46.890Z,24.87
2023-04-26T09:48:16.719Z,25.32
2023-04-26T09:50:45.222Z,25.81
2023-04-26T09:53:26.408Z,25.94
2023-04-26T09:55:54.729Z,25.28
2023-04-26T09:58:23.151Z,25.77
2023-04-26T10:00:51.958Z,25.00
2023-04-26T10:03:20.144Z,24.34
2023-04-26T10:05:48.177Z,23.49
2023-04-26T10:08:17.679Z,22.26
2023-04-26T10:10:45.894Z,22.29
2023-04-26T10:13:14.019Z,21.87
2023-04-26T10:15:41.902Z,22.28
2023-04-26T10:18:09.775Z,21.71
2023-04-26T10:20:39.973Z,21.68
2023-04-26T10:23:07.900Z,21.58
2023-04-26T10:25:37.834Z,21.27
2023-04-26T10:28:05.894Z,20.71
2023-04-26T10:30:33.652Z,20.50
2023-04-26T10:33:16.481Z,19.72
2023-04-26T10:36:09.880Z,20.61
2023-04-26T10:38:39.245Z,21.22
2023-04-26T10:41:30.786Z,20.26
2023-04-26T10:43:59.841Z,20.54
2023-04-26T10:46:38.279Z,20.93
2023-04-26T10:49:17.072Z,20.92
2023-04-26T10:52:16.411Z,21.24
2023-04-26T10:54:56.799Z,21.43
2023-04-26T10:57:47.885Z,22.04
2023-04-26T11:00:31.994Z,22.14
2023-04-26T11:03:12.786Z,22.28
2023-04-26T11:05:53.232Z,22.44
2023-04-26T11:08:21.644Z,21.95
2023-04-26T11:10:53.798Z,21.40
2023-04-26T11:13:22.924Z,21.85
2023-04-26T11:15:54.008Z,21.71
2023-04-26T11:18:21.876Z,21.01
2023-04-26T11:20:49.656Z,21.88
2023-04-26T11:23:19.000Z,22.23
2023-04-26T11:25:46.827Z,22.08
2023-04-26T11:28:14.555Z,22.86
2023-04-26T11:30:43.926Z,22.49
2023-04-26T11:33:17.668Z,22.74
2023-04-26T11:35:46.414Z,22.91
2023-04-26T11:38:14.111Z,22.76
2023-04-26T11:40:41.840Z,22.80
2023-04-26T11:43:09.854Z,22.51
2023-04-26T11:45:38.134Z,22.28
2023-04-26T11:48:08.575Z,22.26
2023-04-26T11:50:36.911Z,21.88
2023-04-26T11:53:06.570Z,21.91
2023-04-26T11:55:35.921Z,21.71
2023-04-26T11:58:10.717Z,22.16
2023-04-26T12:00:38.827Z,21.81
2023-04-26T12:03:11.293Z,21.48
2023-04-26T12:05:39.363Z,21.64
2023-04-26T12:08:07.377Z,21.37
2023-04-26T12:10:36.498Z,21.06
2023-04-26T12:13:04.267Z,21.27
2023-04-26T12:15:32.636Z,21.23
2023-04-26T12:18:01.787Z,20.62
2023-04-26T12:20:32.553Z,21.20
2023-04-26T12:23:04.688Z,21.18
2023-04-26T12:25:33.119Z,21.35
2023-04-26T12:28:00.891Z,21.12
2023-04-26T12:30:29.941Z,21.33
2023-04-26T12:33:05.779Z,21.53
2023-04-26T12:35:44.639Z,21.44
2023-04-26T12:38:13.391Z,21.25
2023-04-26T12:40:41.739Z,21.74
2023-04-26T12:43:09.878Z,21.55
2023-04-26T12:45:37.724Z,21.91
2023-04-26T12:48:07.817Z,21.85
2023-04-26T12:50:37.464Z,22.22
2023-04-26T12:53:12.737Z,21.80
2023-04-26T12:55:40.568Z,22.06
2023-04-26T12:58:08.505Z,21.89
2023-04-26T13:00:36.312Z,21.58
2023-04-26T13:03:04.591Z,21.51
2023-04-26T13:05:32.784Z,21.47
2023-04-26T13:08:02.286Z,21.46
2023-04-26T13:10:32.874Z,21.12
2023-04-26T13:13:02.276Z,21.09
2023-04-26T13:15:30.843Z,21.36
2023-04-26T13:17:59.187Z,20.92
2023-04-26T13:20:29.013Z,20.46
2023-04-26T13:23:00.345Z,21.29
2023-04-26T13:25:32.953Z,21.85
2023-04-26T13:28:09.819Z,22.17
2023-04-26T13:30:39.165Z,22.13
2023-04-26T13:33:08.000Z,22.79
2023-04-26T13:35:38.664Z,22.75
2023-04-26T13:38:07.014Z,23.08
2023-04-26T13:40:35.347Z,23.21
2023-04-26T13:43:06.937Z,23.18
2023-04-26T13:45:37.002Z,23.75
2023-04-26T13:48:06.625Z,24.03
2023-04-26T13:50:35.230Z,23.67
2023-04-26T13:53:04.432Z,24.00
2023-04-26T13:55:32.731Z,24.16
2023-04-26T13:58:01.188Z,24.34
2023-04-26T14:00:34.121Z,23.88
2023-04-26T14:03:02.879Z,23.91
2023-04-26T14:05:31.286Z,24.15
2023-04-26T14:07:59.558Z,24.41
2023-04-26T14:10:28.058Z,23.84
2023-04-26T14:12:56.882Z,24.36
2023-04-26T14:15:26.258Z,24.50
2023-04-26T14:17:56.431Z,24.20
2023-04-26T14:20:25.698Z,24.34
2023-04-26T14:22:54.275Z,24.21
2023-04-26T14:25:22.305Z,23.72
2023-04-26T14:27:52.321Z,24.16
2023-04-26T14:30:22.210Z,24.29
2023-04-26T14:32:50.276Z,24.17
2023-04-26T14:35:22.046Z,24.75
2023-04-26T14:37:50.299Z,25.10
2023-04-26T14:40:18.444Z,24.97
2023-04-26T14:42:46.873Z,24.75
2023-04-26T14:45:15.108Z,24.92
2023-04-26T14:47:43.249Z,24.82
2023-04-26T14:50:13.801Z,25.18
2023-04-26T14:52:43.335Z,25.55
2023-04-26T14:55:12.250Z,25.56
2023-04-26T14:57:41.976Z,25.52
2023-04-26T15:00:15.134Z,24.91
2023-04-26T15:02:43.322Z,25.43
2023-04-26T15:05:11.985Z,25.20
2023-04-26T15:07:40.098Z,25.24
2023-04-26T15:10:14.736Z,25.08
2023-04-26T15:12:43.994Z,25.21
2023-04-26T15:15:13.076Z,25.15
2023-04-26T15:17:41.793Z,25.12
2023-04-26T15:20:10.891Z,24.85
2023-04-26T15:22:39.545Z,24.67
2023-04-26T15:25:11.451Z,24.43
2023-04-26T15:27:39.953Z,24.36
2023-04-26T15:30:10.368Z,24.63
2023-04-26T15:32:38.747Z,23.95
2023-04-26T15:35:08.124Z,24.31
2023-04-26T15:37:44.416Z,24.09
2023-04-26T15:40:14.941Z,24.33
2023-04-26T15:42:45.726Z,23.62
2023-04-26T15:45:14.645Z,24.10
2023-04-26T15:47:43.091Z,24.20
2023-04-26T15:50:13.345Z,24.24
2023-04-26T15:52:42.313Z,24.55
2023-04-26T15:55:11.772Z,25.04
2023-04-26T15:57:42.793Z,25.20
2023-04-26T16:00:14.626Z,25.33
2023-04-26T16:02:44.894Z,25.18
2023-04-26T16:05:14.023Z,25.59
2023-04-26T16:07:43.464Z,26.14
2023-04-26T16:10:11.938Z,25.36
2023-04-26T16:12:43.624Z,25.80
2023-04-26T16:15:12.133Z,26.52
2023-04-26T16:17:40.274Z,26.46
2023-04-26T16:20:10.111Z,26.73
2023-04-26T16:22:37.923Z,27.13
2023-04-26T16:25:06.889Z,27.46
2023-04-26T16:30:19.053Z,27.42
2023-04-26T16:32:47.126Z,27.48
2023-04-26T16:35:33.170Z,27.51
2023-04-26T16:38:01.561Z,27.68
2023-04-26T16:40:29.262Z,27.46
2023-04-26T16:42:57.524Z,27.40
2023-04-26T16:45:26.784Z,27.46
2023-04-26T16:47:54.754Z,27.24
2023-04-26T16:50:22.672Z,27.44
2023-04-26T16:52:50.853Z,27.69
2023-04-26T16:55:18.714Z,27.31
2023-04-26T16:57:46.476Z,27.18
2023-04-26T17:00:15.614Z,27.39
2023-04-26T17:02:45.403Z,27.20
2023-04-26T17:05:14.017Z,27.83
2023-04-26T17:07:44.408Z,27.65
2023-04-26T17:10:12.304Z,27.55
2023-04-26T17:12:40.174Z,27.58
2023-04-26T17:15:18.438Z,28.12
2023-04-26T17:17:48.019Z,27.86
2023-04-26T17:20:16.538Z,28.34
2023-04-26T17:22:44.540Z,27.91
2023-04-26T17:25:12.662Z,28.26
2023-04-26T17:27:40.522Z,28.47
2023-04-26T17:30:10.904Z,28.33
2023-04-26T17:32:38.849Z,28.30
2023-04-26T17:35:09.105Z,28.66
2023-04-26T17:37:37.056Z,28.99
2023-04-26T17:40:07.734Z,28.88
2023-04-26T17:42:35.727Z,28.63
2023-04-26T17:45:05.196Z,28.86
2023-04-26T17:47:37.327Z,28.80
2023-04-26T17:50:11.141Z,29.11
2023-04-26T17:52:44.900Z,29.14
2023-04-26T17:55:13.537Z,29.63
2023-04-26T17:58:04.246Z,30.11
2023-04-26T18:00:34.608Z,30.17
2023-04-26T18:03:15.362Z,30.24
2023-04-26T18:05:56.907Z,30.17
2023-04-26T18:08:30.024Z,30.74
2023-04-26T18:11:01.129Z,30.69
2023-04-26T18:13:41.880Z,31.23
2023-04-26T18:16:15.870Z,31.29
2023-04-26T18:18:43.862Z,31.07
2023-04-26T18:21:14.187Z,31.48
2023-04-26T18:23:45.584Z,31.68
2023-04-26T18:26:15.840Z,31.92
2023-04-26T18:28:49.434Z,31.52
2023-04-26T18:31:20.816Z,31.65
2023-04-26T18:33:52.234Z,32.67
2023-04-26T22:57:41.786Z,39.89
2023-04-26T23:00:12.455Z,39.63
2023-04-26T23:02:41.264Z,39.42
2023-04-26T23:05:10.989Z,39.78
2023-04-26T23:07:38.902Z,40.03
2023-04-26T23:10:08.388Z,39.42
2023-04-26T23:12:37.064Z,40.05
2023-04-26T23:15:07.618Z,40.47
2023-04-26T23:17:35.476Z,40.02
2023-04-26T23:20:11.624Z,40.43
2023-04-26T23:22:39.864Z,40.53
2023-04-26T23:25:09.142Z,41.12
2023-04-26T23:27:37.000Z,40.66
2023-04-26T23:30:07.970Z,40.68
2023-04-26T23:32:35.931Z,40.95
2023-04-26T23:35:04.164Z,41.38
2023-04-26T23:37:32.090Z,41.32
2023-04-26T23:40:00.025Z,42.45
2023-04-26T23:42:28.150Z,41.90
2023-04-26T23:44:56.152Z,42.33
2023-04-26T23:47:25.894Z,42.31
2023-04-26T23:49:54.044Z,42.61
2023-04-26T23:52:21.988Z,42.90
2023-04-26T23:54:50.204Z,42.95
2023-04-26T23:57:18.158Z,42.52
2023-04-26T23:59:46.171Z,42.90
